Time;durP1;ratioP1;P1;durP2;ratioP2;P2;SDS_P1;SDS_P2;PMS_P1;PMS_P2;Temp;Humidity;BMP_temperature;BMP_pressure;BME280_temperature;BME280_humidity;BME280_pressure;Samples;Min_cycle;Max_cycle;Signal;HPM_P1;HPM_P2
2022/09/27 00:00:10;;;;;;;1.45;1.10;;;;;;;10.86;82.60;96554.72;7389726;19;20462;-77
2022/09/27 00:02:40;;;;;;;3.75;1.60;;;;;;;10.82;82.61;96545.53;7395041;19;20046;-77
2022/09/27 00:05:07;;;;;;;1.67;1.30;;;;;;;10.87;82.31;96545.75;7395488;19;20121;-77
2022/09/27 00:07:33;;;;;;;2.80;1.05;;;;;;;10.84;82.45;96549.63;7391762;19;20023;-77
2022/09/27 00:10:01;;;;;;;3.83;0.82;;;;;;;10.75;82.55;96540.25;7392525;19;20030;-76
2022/09/27 00:12:27;;;;;;;1.55;1.23;;;;;;;10.94;82.34;96544.75;7393585;19;20010;-77
2022/09/27 00:14:54;;;;;;;1.58;1.15;;;;;;;10.85;82.65;96538.03;7389847;19;20377;-77
2022/09/27 00:17:21;;;;;;;0.82;0.82;;;;;;;10.86;82.17;96530.91;7390900;19;20060;-76
2022/09/27 00:19:48;;;;;;;5.40;1.17;;;;;;;10.82;82.49;96534.97;7390325;19;20015;-77
2022/09/27 00:22:14;;;;;;;1.13;1.02;;;;;;;10.80;82.48;96532.53;7395974;19;20018;-77
2022/09/27 00:24:41;;;;;;;4.57;1.00;;;;;;;10.76;82.53;96528.66;7396211;19;20493;-77
2022/09/27 00:27:08;;;;;;;1.27;1.00;;;;;;;10.78;82.52;96531.91;7394035;19;20079;-78
2022/09/27 00:29:36;;;;;;;2.20;1.13;;;;;;;10.68;82.62;96519.06;7392526;19;20331;-75
2022/09/27 00:32:03;;;;;;;1.15;0.80;;;;;;;10.62;82.28;96519.09;7388764;19;20010;-77
2022/09/27 00:34:30;;;;;;;1.75;0.95;;;;;;;10.77;82.27;96527.66;7386060;19;20022;-77
2022/09/27 00:36:57;;;;;;;1.33;0.80;;;;;;;10.72;82.51;96520.31;7389965;19;20011;-76
2022/09/27 00:39:23;;;;;;;1.50;1.00;;;;;;;10.86;82.07;96521.13;7390806;19;20383;-76
2022/09/27 00:41:50;;;;;;;1.40;1.10;;;;;;;10.78;82.12;96513.41;7387209;19;20051;-76
2022/09/27 00:44:23;;;;;;;1.42;1.23;;;;;;;10.80;82.20;96508.72;7388469;19;20030;-77
2022/09/27 00:47:30;;;;;;;0.88;0.88;;;;;;;10.84;82.24;96509.94;7383705;19;20010;-76
2022/09/27 00:50:03;;;;;;;2.42;0.82;;;;;;;10.80;82.34;96505.28;7383130;19;20015;-76
2022/09/27 00:52:32;;;;;;;3.40;0.95;;;;;;;10.69;82.41;96509.31;7389785;19;20011;-75
2022/09/27 00:55:07;;;;;;;3.95;1.00;;;;;;;10.78;82.73;96508.09;7389129;19;20054;-75
2022/09/27 00:57:34;;;;;;;0.80;0.75;;;;;;;10.83;82.31;96510.97;7388958;19;20046;-76
2022/09/27 01:00:06;;;;;;;6.00;1.52;;;;;;;10.83;81.96;96512.78;7387800;19;20026;-74
2022/09/27 01:02:35;;;;;;;1.92;0.98;;;;;;;10.91;81.79;96521.34;7387141;19;20596;-75
2022/09/27 01:05:04;;;;;;;2.33;0.90;;;;;;;10.90;82.07;96518.88;7384266;19;20373;-74
2022/09/27 01:07:31;;;;;;;0.77;0.60;;;;;;;11.01;82.06;96513.00;7382288;19;20014;-77
2022/09/27 01:09:58;;;;;;;0.93;0.70;;;;;;;11.00;81.71;96521.94;7387374;19;20025;-77
2022/09/27 01:12:34;;;;;;;1.15;1.05;;;;;;;10.94;81.35;96518.28;7387635;19;20018;-75
2022/09/27 01:15:13;;;;;;;1.25;0.70;;;;;;;10.95;82.05;96509.34;7388083;19;20018;-75
2022/09/27 01:18:04;;;;;;;1.17;0.80;;;;;;;10.92;82.17;96511.56;7388258;19;20033;-76
2022/09/27 01:21:09;;;;;;;1.42;0.80;;;;;;;10.94;81.67;96517.47;7383805;19;20136;-75
2022/09/27 01:23:55;;;;;;;4.00;0.80;;;;;;;10.92;82.56;96514.22;7382994;19;20014;-74
2022/09/27 01:26:58;;;;;;;1.15;0.75;;;;;;;11.00;82.26;96516.66;7386455;19;20014;-75
2022/09/27 01:29:28;;;;;;;1.08;0.63;;;;;;;10.90;82.08;96514.44;7384712;19;20025;-75
2022/09/27 01:32:11;;;;;;;2.58;0.77;;;;;;;10.95;82.32;96519.94;7389965;19;20511;-75
2022/09/27 01:34:55;;;;;;;0.70;0.50;;;;;;;10.94;82.17;96515.63;7386578;19;20615;-75
2022/09/27 01:37:32;;;;;;;1.63;0.80;;;;;;;11.01;82.05;96514.84;7385707;19;20400;-76
2022/09/27 01:40:14;;;;;;;1.67;0.77;;;;;;;10.95;82.30;96508.50;7384060;19;20010;-75
2022/09/27 01:43:08;;;;;;;3.80;0.80;;;;;;;10.95;82.33;96508.50;7388992;19;20029;-77
2022/09/27 01:45:56;;;;;;;1.58;0.98;;;;;;;10.96;82.49;96500.38;7386958;19;20029;-77
2022/09/27 01:48:59;;;;;;;0.85;0.75;;;;;;;10.92;81.82;96499.16;7385005;19;20456;-76
2022/09/27 01:51:33;;;;;;;0.60;0.60;;;;;;;10.75;81.79;96497.94;7386282;19;20015;-74
2022/09/27 01:54:02;;;;;;;4.38;0.73;;;;;;;10.76;81.87;96500.38;7385998;19;20028;-75
2022/09/27 01:56:53;;;;;;;2.75;0.90;;;;;;;10.84;82.59;96499.34;7383446;19;20495;-76
2022/09/27 01:59:29;;;;;;;1.15;0.63;;;;;;;10.90;82.51;96495.91;7384852;19;20014;-76
2022/09/27 02:02:08;;;;;;;1.15;0.95;;;;;;;11.01;82.28;96510.34;7387318;19;20054;-76
2022/09/27 02:04:57;;;;;;;1.10;0.80;;;;;;;11.03;82.71;96508.28;7386996;19;20018;-77
2022/09/27 02:07:46;;;;;;;0.60;0.60;;;;;;;11.07;82.10;96506.06;7387663;19;20018;-76
2022/09/27 02:10:19;;;;;;;0.75;0.73;;;;;;;10.95;82.08;96506.69;7383889;19;21145;-77
2022/09/27 02:12:57;;;;;;;3.50;1.02;;;;;;;10.96;82.56;96510.16;7383712;19;20417;-76
2022/09/27 02:15:25;;;;;;;2.33;0.80;;;;;;;11.01;82.60;96510.34;7385087;19;20022;-77
2022/09/27 02:18:33;;;;;;;1.85;0.82;;;;;;;11.04;82.22;96506.50;7389472;19;20018;-76
2022/09/27 02:21:03;;;;;;;0.45;0.45;;;;;;;10.97;82.43;96517.88;7385992;19;20457;-77
2022/09/27 02:23:47;;;;;;;1.02;0.90;;;;;;;11.07;82.74;96516.66;7387150;19;20384;-76
2022/09/27 02:26:27;;;;;;;2.58;0.90;;;;;;;10.97;82.83;96517.88;7389634;19;20066;-78
2022/09/27 02:29:07;;;;;;;0.50;0.50;;;;;;;10.87;83.27;96535.97;7384427;19;20101;-78
2022/09/27 02:31:41;;;;;;;5.53;0.88;;;;;;;10.82;84.16;96530.50;7385335;19;20056;-78
2022/09/27 02:34:17;;;;;;;1.50;1.10;;;;;;;10.88;83.41;96534.97;7388248;19;20026;-77
2022/09/27 02:36:43;;;;;;;2.47;0.82;;;;;;;10.87;83.45;96538.63;7387524;19;20038;-78
2022/09/27 02:39:10;;;;;;;2.20;0.55;;;;;;;10.78;83.77;96545.13;7388372;19;20010;-77
2022/09/27 02:41:37;;;;;;;1.10;0.80;;;;;;;10.82;83.74;96546.38;7385908;19;20375;-77
2022/09/27 02:44:09;;;;;;;4.75;1.00;;;;;;;10.79;84.27;96551.25;7383769;19;20014;-76
2022/09/27 02:46:48;;;;;;;1.85;0.98;;;;;;;10.84;84.32;96554.91;7380321;19;20011;-77
2022/09/27 02:49:37;;;;;;;1.77;0.68;;;;;;;10.66;84.11;96555.47;7380986;19;20019;-76
2022/09/27 02:52:25;;;;;;;1.30;0.82;;;;;;;10.80;83.85;96542.31;7385416;19;20018;-76
2022/09/27 02:55:17;;;;;;;2.05;0.73;;;;;;;10.77;83.65;96548.81;7386097;19;20015;-77
2022/09/27 02:58:21;;;;;;;3.03;0.98;;;;;;;10.72;84.07;96554.69;7386719;19;20119;-77
2022/09/27 03:01:13;;;;;;;3.63;0.82;;;;;;;10.59;84.14;96559.16;7381002;19;20018;-78
2022/09/27 03:04:05;;;;;;;2.47;0.70;;;;;;;10.55;83.37;96562.16;7382230;19;20022;-77
2022/09/27 03:06:32;;;;;;;1.52;0.80;;;;;;;10.40;83.55;96561.53;7385590;19;20410;-75
2022/09/27 03:08:58;;;;;;;2.08;0.73;;;;;;;10.39;83.39;96577.59;7379622;19;20020;-77
2022/09/27 03:11:25;;;;;;;2.72;0.65;;;;;;;10.36;83.36;96575.34;7383808;19;20431;-76
2022/09/27 03:13:52;;;;;;;0.90;0.47;;;;;;;10.28;83.24;96581.63;7385282;19;20022;-77
2022/09/27 03:16:38;;;;;;;2.17;0.60;;;;;;;10.25;83.36;96579.34;7382144;19;20006;-75
2022/09/27 03:19:24;;;;;;;2.25;1.08;;;;;;;10.32;83.39;96581.03;7378172;19;20611;-77
2022/09/27 03:21:50;;;;;;;4.82;1.23;;;;;;;10.21;83.32;96576.25;7385270;19;22858;-76
2022/09/27 03:24:17;;;;;;;3.85;1.10;;;;;;;10.25;83.50;96582.81;7381988;19;20022;-76
2022/09/27 03:26:44;;;;;;;2.95;1.25;;;;;;;10.34;83.24;96588.75;7384521;19;20709;-76
2022/09/27 03:29:10;;;;;;;4.95;1.30;;;;;;;10.35;82.80;96592.22;7382315;19;20010;-76
2022/09/27 03:31:41;;;;;;;3.50;1.10;;;;;;;10.28;83.17;96594.84;7382787;19;20010;-75
2022/09/27 03:34:30;;;;;;;3.33;1.10;;;;;;;10.28;82.70;96592.19;7380249;19;20108;-76
2022/09/27 03:36:56;;;;;;;2.65;0.90;;;;;;;10.36;83.17;96589.38;7380035;19;20022;-75
2022/09/27 03:39:23;;;;;;;3.30;0.90;;;;;;;10.40;82.80;96585.34;7383123;19;20015;-74
2022/09/27 03:41:50;;;;;;;3.67;1.10;;;;;;;10.41;82.85;96589.59;7383299;19;20634;-76
2022/09/27 03:44:16;;;;;;;4.35;0.93;;;;;;;10.47;82.70;96594.09;7383418;19;20018;-75
2022/09/27 03:46:43;;;;;;;2.35;0.85;;;;;;;10.43;82.46;96592.06;7384816;19;20233;-74
2022/09/27 03:49:10;;;;;;;5.03;1.17;;;;;;;10.45;81.96;96590.84;7380069;19;20022;-75
2022/09/27 03:51:37;;;;;;;2.83;1.00;;;;;;;10.32;82.01;96598.69;7378893;19;20025;-75
2022/09/27 03:54:04;;;;;;;2.00;1.13;;;;;;;10.34;82.55;96594.03;7379802;19;20018;-74
2022/09/27 03:56:31;;;;;;;2.65;1.20;;;;;;;10.35;82.58;96595.69;7381772;19;20378;-74
2022/09/27 03:58:58;;;;;;;3.42;1.15;;;;;;;10.25;82.45;96597.84;7381008;19;20026;-74
2022/09/27 04:01:26;;;;;;;6.70;2.15;;;;;;;10.23;82.62;96603.31;7380962;19;20022;-74
2022/09/27 04:04:03;;;;;;;5.65;2.20;;;;;;;10.22;82.71;96601.69;7380732;19;20014;-74
2022/09/27 04:06:37;;;;;;;5.18;1.67;;;;;;;10.24;82.55;96601.50;7380853;19;20018;-73
2022/09/27 04:09:03;;;;;;;4.82;2.38;;;;;;;10.32;82.44;96599.53;7378373;19;20014;-73
2022/09/27 04:11:50;;;;;;;4.68;1.30;;;;;;;10.33;82.80;96601.16;7382693;19;20019;-74
2022/09/27 04:14:17;;;;;;;10.15;2.00;;;;;;;10.30;82.60;96603.41;7380802;19;20480;-74
2022/09/27 04:17:03;;;;;;;6.32;2.00;;;;;;;10.36;82.88;96607.06;7380614;19;20023;-74
2022/09/27 04:19:47;;;;;;;2.72;1.45;;;;;;;10.44;82.24;96605.06;7380549;19;20015;-74
2022/09/27 04:22:14;;;;;;;2.78;1.73;;;;;;;10.37;82.17;96598.13;7385574;19;20029;-75
2022/09/27 04:24:42;;;;;;;7.97;2.00;;;;;;;10.31;82.71;96605.81;7386987;19;20010;-74
2022/09/27 04:27:23;;;;;;;5.72;1.63;;;;;;;10.40;82.33;96603.00;7384482;19;20007;-74
2022/09/27 04:29:51;;;;;;;5.93;2.00;;;;;;;10.32;82.04;96614.56;7384760;19;20046;-74
2022/09/27 04:32:41;;;;;;;6.47;2.10;;;;;;;10.42;82.29;96606.28;7390910;19;20017;-74
2022/09/27 04:38:13;;;;;;;5.53;1.90;;;;;;;10.30;81.98;96619.25;7386828;19;20010;-76
2022/09/27 04:40:40;;;;;;;6.60;2.40;;;;;;;10.39;82.09;96620.69;7383359;19;20634;-75
2022/09/27 04:43:12;;;;;;;5.53;2.60;;;;;;;10.45;82.23;96614.63;7383430;19;20010;-75
2022/09/27 04:45:38;;;;;;;9.15;2.22;;;;;;;10.41;82.27;96620.50;7384860;19;20018;-75
2022/09/27 04:48:08;;;;;;;6.18;2.50;;;;;;;10.36;82.46;96626.38;7385038;19;20401;-75
2022/09/27 04:50:35;;;;;;;7.43;2.35;;;;;;;10.38;81.77;96624.38;7383685;19;20014;-76
2022/09/27 04:53:02;;;;;;;7.28;2.45;;;;;;;10.35;82.34;96630.06;7388031;19;20022;-76
2022/09/27 04:55:29;;;;;;;6.63;2.05;;;;;;;10.40;81.70;96627.63;7386084;19;20038;-76
2022/09/27 04:57:56;;;;;;;7.53;1.90;;;;;;;10.48;82.01;96637.22;7378216;19;20094;-77
2022/09/27 05:00:23;;;;;;;9.80;2.70;;;;;;;10.48;81.96;96640.69;7378412;19;20018;-76
2022/09/27 05:02:56;;;;;;;9.70;2.13;;;;;;;10.47;82.29;96638.22;7387362;19;20022;-75
2022/09/27 05:05:45;;;;;;;14.02;2.30;;;;;;;10.48;82.37;96651.25;7387939;19;20129;-76
2022/09/27 05:08:13;;;;;;;7.13;2.80;;;;;;;10.57;81.80;96651.06;7386610;19;20044;-76
2022/09/27 05:11:00;;;;;;;5.63;2.70;;;;;;;10.54;82.51;96647.81;7384535;19;20114;-76
2022/09/27 05:13:27;;;;;;;7.78;2.30;;;;;;;10.42;82.82;96654.66;7388003;19;20366;-76
2022/09/27 05:15:54;;;;;;;8.70;2.67;;;;;;;10.40;82.79;96654.06;7386198;19;20837;-76
2022/09/27 05:18:37;;;;;;;6.65;2.58;;;;;;;10.44;82.42;96655.28;7388320;19;20010;-75
2022/09/27 05:21:22;;;;;;;7.53;2.28;;;;;;;10.43;82.63;96658.97;7389507;19;20024;-74
2022/09/27 05:23:49;;;;;;;7.78;2.80;;;;;;;10.38;82.42;96673.78;7388765;19;20048;-76
2022/09/27 05:26:16;;;;;;;8.02;2.15;;;;;;;10.39;82.75;96678.03;7388133;19;20015;-74
2022/09/27 05:28:42;;;;;;;8.48;3.25;;;;;;;10.40;83.08;96672.56;7390052;19;20054;-75
2022/09/27 05:31:11;;;;;;;8.82;2.55;;;;;;;10.53;82.29;96677.91;7386286;19;20042;-75
2022/09/27 05:33:39;;;;;;;7.80;2.90;;;;;;;10.46;82.23;96694.75;7384171;19;20015;-75
2022/09/27 05:36:38;;;;;;;9.57;2.40;;;;;;;10.30;83.04;96695.91;7389041;19;20009;-76
2022/09/27 05:39:05;;;;;;;5.90;2.22;;;;;;;10.19;82.52;96705.16;7388198;19;20153;-75
2022/09/27 05:41:33;;;;;;;3.70;1.88;;;;;;;10.26;82.69;96711.28;7388639;19;20025;-75
2022/09/27 05:44:01;;;;;;;6.93;2.10;;;;;;;10.31;82.97;96714.19;7389785;19;20025;-76
2022/09/27 05:46:27;;;;;;;7.47;1.90;;;;;;;10.29;83.01;96718.03;7386335;19;20409;-76
2022/09/27 05:48:54;;;;;;;4.63;2.22;;;;;;;10.25;82.30;96722.06;7383812;19;20014;-75
2022/09/27 05:51:21;;;;;;;6.43;2.20;;;;;;;10.18;83.18;96722.00;7384151;19;20029;-75
2022/09/27 05:53:49;;;;;;;3.58;1.85;;;;;;;10.24;82.32;96721.25;7387452;19;20029;-75
2022/09/27 05:56:23;;;;;;;3.58;1.60;;;;;;;10.07;82.19;96722.56;7386964;19;20089;-76
2022/09/27 05:59:10;;;;;;;5.75;1.77;;;;;;;10.16;82.47;96720.56;7388249;19;20797;-76
2022/09/27 06:02:17;;;;;;;5.50;1.52;;;;;;;10.10;82.39;96728.25;7386190;19;20545;-75
2022/09/27 06:04:56;;;;;;;3.22;1.25;;;;;;;10.24;82.33;96733.63;7381432;19;20030;-75
2022/09/27 06:07:41;;;;;;;3.60;1.55;;;;;;;10.15;82.46;96734.81;7385151;19;20025;-77
2022/09/27 06:10:19;;;;;;;5.20;1.70;;;;;;;10.21;82.39;96739.31;7387320;19;20778;-76
2022/09/27 06:12:46;;;;;;;2.78;1.70;;;;;;;10.15;82.04;96740.09;7389198;19;20416;-76
2022/09/27 06:15:27;;;;;;;2.95;1.63;;;;;;;10.07;81.02;96744.50;7388521;19;20014;-77
2022/09/27 06:17:54;;;;;;;5.93;2.20;;;;;;;10.30;81.69;96748.75;7384736;19;20031;-77
2022/09/27 06:20:22;;;;;;;5.93;1.50;;;;;;;10.29;81.62;96755.03;7387305;19;20023;-75
2022/09/27 06:22:49;;;;;;;5.10;1.60;;;;;;;10.36;81.09;96755.91;7385260;19;22811;-76
2022/09/27 06:25:17;;;;;;;8.05;1.38;;;;;;;10.31;80.24;96763.59;7388061;19;20018;-77
2022/09/27 06:27:55;;;;;;;1.95;1.10;;;;;;;10.33;80.22;96758.94;7387086;19;20018;-77
2022/09/27 06:30:27;;;;;;;4.63;1.60;;;;;;;10.38;80.40;96761.00;7388787;19;20019;-75
2022/09/27 06:33:01;;;;;;;6.65;1.83;;;;;;;10.39;79.66;96767.94;7389690;19;20025;-76
2022/09/27 06:35:31;;;;;;;4.85;1.17;;;;;;;10.63;79.07;96764.81;7389461;19;20015;-77
2022/09/27 06:38:02;;;;;;;2.65;1.50;;;;;;;10.39;80.24;96762.63;7385880;19;20022;-76
2022/09/27 06:40:29;;;;;;;2.40;1.20;;;;;;;10.43;80.35;96774.47;7387432;19;20013;-77
2022/09/27 06:43:13;;;;;;;5.20;1.23;;;;;;;10.38;80.17;96771.59;7388221;19;20010;-75
2022/09/27 06:46:04;;;;;;;2.40;1.63;;;;;;;10.48;80.82;96774.72;7388433;19;20014;-77
2022/09/27 06:48:52;;;;;;;4.60;1.33;;;;;;;10.62;79.84;96778.25;7386136;19;20011;-76
2022/09/27 06:51:19;;;;;;;3.80;0.93;;;;;;;10.91;78.83;96772.69;7386159;19;20037;-76
2022/09/27 06:53:47;;;;;;;1.95;1.05;;;;;;;10.84;78.41;96782.41;7387891;19;20074;-76
2022/09/27 06:56:14;;;;;;;1.08;1.02;;;;;;;10.66;77.88;96784.75;7384410;19;20026;-76
2022/09/27 07:01:40;;;;;;;2.92;0.73;;;;;;;10.36;78.46;96792.91;7387644;19;20014;-76
2022/09/27 07:04:25;;;;;;;0.65;0.65;;;;;;;10.37;78.46;96793.72;7388665;19;20048;-76
2022/09/27 07:07:05;;;;;;;1.52;0.70;;;;;;;10.11;78.67;96803.91;7386858;19;20347;-77
2022/09/27 07:09:39;;;;;;;1.60;0.70;;;;;;;9.90;79.66;96806.56;7385824;19;20097;-76
2022/09/27 07:12:06;;;;;;;0.90;0.82;;;;;;;9.89;80.88;96808.38;7384249;19;20017;-77
2022/09/27 07:14:34;;;;;;;1.50;0.75;;;;;;;10.02;80.96;96809.50;7382906;19;20018;-78
2022/09/27 07:17:02;;;;;;;0.52;0.43;;;;;;;10.12;79.52;96815.28;7386544;19;20070;-75
2022/09/27 07:19:34;;;;;;;2.53;0.60;;;;;;;10.08;80.31;96809.56;7384999;19;20022;-74
2022/09/27 07:22:01;;;;;;;1.50;0.68;;;;;;;10.10;79.74;96819.94;7387091;19;20014;-76
2022/09/27 07:24:28;;;;;;;0.88;0.35;;;;;;;10.14;80.45;96823.00;7384940;19;20082;-75
2022/09/27 07:26:55;;;;;;;0.95;0.43;;;;;;;10.13;80.15;96821.38;7385183;19;20412;-76
2022/09/27 07:29:22;;;;;;;0.38;0.38;;;;;;;10.26;79.76;96821.47;7380302;19;20037;-74
2022/09/27 07:31:51;;;;;;;1.50;0.40;;;;;;;10.34;79.19;96818.72;7384518;19;20023;-76
2022/09/27 07:34:18;;;;;;;2.40;0.40;;;;;;;10.30;79.56;96828.88;7385281;19;20015;-76
2022/09/27 07:36:45;;;;;;;0.80;0.60;;;;;;;10.39;79.14;96826.91;7383340;19;20491;-76
2022/09/27 07:39:12;;;;;;;1.13;0.60;;;;;;;10.37;78.72;96834.19;7385233;19;20007;-77
2022/09/27 07:41:42;;;;;;;1.20;0.70;;;;;;;10.36;80.10;96844.97;7385742;19;20503;-76
2022/09/27 07:44:10;;;;;;;0.55;0.40;;;;;;;10.43;80.07;96841.38;7384113;19;20018;-76
2022/09/27 07:46:48;;;;;;;2.13;0.50;;;;;;;10.32;79.33;96844.53;7380066;19;20018;-75
2022/09/27 07:49:21;;;;;;;2.65;0.60;;;;;;;10.23;79.56;96858.88;7383034;19;20493;-75
2022/09/27 07:52:12;;;;;;;0.50;0.43;;;;;;;10.21;80.10;96860.88;7385715;19;20022;-76
2022/09/27 07:54:47;;;;;;;1.50;0.75;;;;;;;10.28;80.92;96859.97;7383909;19;20383;-76
2022/09/27 07:57:37;;;;;;;1.85;0.55;;;;;;;10.70;80.70;96865.34;7391814;19;20511;-75
2022/09/27 08:00:09;;;;;;;3.67;0.50;;;;;;;10.92;79.36;96863.44;7392357;19;20413;-76
2022/09/27 08:02:38;;;;;;;2.35;0.70;;;;;;;11.07;78.38;96860.69;7389495;19;20090;-75
2022/09/27 08:05:06;;;;;;;3.25;0.65;;;;;;;11.29;77.79;96854.25;7390224;19;20018;-76
2022/09/27 08:07:34;;;;;;;1.75;1.08;;;;;;;11.06;78.58;96861.69;7389725;19;20587;-75
2022/09/27 08:10:00;;;;;;;1.00;0.90;;;;;;;11.15;78.60;96863.16;7390706;19;20018;-76
2022/09/27 08:12:29;;;;;;;2.38;1.10;;;;;;;11.56;78.80;96864.97;7393261;19;20019;-75
2022/09/27 08:15:00;;;;;;;2.30;1.00;;;;;;;11.34;77.36;96859.78;7390971;19;20023;-75
2022/09/27 08:17:27;;;;;;;3.83;1.30;;;;;;;11.48;76.36;96862.47;7389073;19;20017;-77
2022/09/27 08:20:06;;;;;;;2.28;1.27;;;;;;;11.55;76.86;96876.56;7389767;19;20018;-75
2022/09/27 08:22:52;;;;;;;1.63;1.08;;;;;;;11.36;76.10;96886.88;7394294;19;20021;-75
2022/09/27 08:25:30;;;;;;;2.90;1.20;;;;;;;11.36;76.74;96891.38;7392048;19;20040;-75
2022/09/27 08:28:17;;;;;;;0.95;0.90;;;;;;;11.51;76.24;96884.09;7389995;19;20019;-76
2022/09/27 08:30:53;;;;;;;1.63;1.52;;;;;;;11.60;76.00;96896.16;7390282;19;20022;-76
2022/09/27 08:33:20;;;;;;;5.30;1.58;;;;;;;11.72;73.14;96891.09;7391168;19;20687;-79
2022/09/27 08:35:46;;;;;;;3.35;1.00;;;;;;;11.50;75.62;96887.75;7387035;19;20014;-76
2022/09/27 08:38:13;;;;;;;2.10;1.10;;;;;;;11.72;74.60;96893.75;7398118;19;20058;-79
2022/09/27 08:40:43;;;;;;;1.63;1.00;;;;;;;11.75;74.67;96901.31;7399451;19;20015;-79
2022/09/27 08:43:22;;;;;;;3.85;1.02;;;;;;;11.71;72.68;96901.88;7397391;19;20081;-78
2022/09/27 08:46:10;;;;;;;2.33;1.05;;;;;;;11.26;73.99;96912.91;7396862;19;20011;-77
2022/09/27 08:48:38;;;;;;;1.30;0.90;;;;;;;11.40;73.86;96909.31;7395585;19;20018;-78
2022/09/27 08:51:08;;;;;;;1.83;0.73;;;;;;;11.87;72.92;96909.50;7392179;19;20015;-77
2022/09/27 08:53:55;;;;;;;1.30;0.73;;;;;;;12.22;71.47;96914.69;7390208;19;20010;-79
2022/09/27 08:56:23;;;;;;;2.92;0.80;;;;;;;12.03;71.47;96903.88;7395878;19;20007;-77
2022/09/27 08:59:14;;;;;;;2.33;0.75;;;;;;;11.74;72.23;96909.44;7395090;19;20962;-78
2022/09/27 09:01:41;;;;;;;1.52;0.65;;;;;;;11.58;72.54;96902.66;7394649;19;20011;-79
2022/09/27 09:04:14;;;;;;;2.25;0.80;;;;;;;11.71;71.79;96912.50;7396241;19;20021;-78
2022/09/27 09:07:06;;;;;;;1.63;0.90;;;;;;;11.63;72.45;96903.69;7394300;19;20018;-79
2022/09/27 09:09:53;;;;;;;2.55;0.80;;;;;;;11.38;71.99;96919.28;7387620;19;20018;-78
2022/09/27 09:12:47;;;;;;;1.55;0.90;;;;;;;11.68;70.76;96919.00;7391149;19;20450;-78
2022/09/27 09:15:55;;;;;;;1.90;0.73;;;;;;;11.63;69.21;96909.00;7393229;19;20018;-77
2022/09/27 09:18:50;;;;;;;2.50;0.90;;;;;;;11.62;71.71;96906.56;7392817;19;20419;-77
2022/09/27 09:21:54;;;;;;;1.42;1.00;;;;;;;11.74;72.48;96912.09;7391551;19;20024;-77
2022/09/27 09:24:30;;;;;;;4.10;1.15;;;;;;;11.84;71.53;96909.88;7392667;19;20038;-77
2022/09/27 09:27:17;;;;;;;2.08;1.00;;;;;;;11.62;69.29;96922.44;7387086;19;20042;-77
2022/09/27 09:29:54;;;;;;;2.55;1.10;;;;;;;11.31;71.69;96913.13;7384800;19;20018;-77
2022/09/27 09:32:30;;;;;;;1.83;0.90;;;;;;;11.30;73.11;96908.88;7390250;19;20030;-77
2022/09/27 09:35:03;;;;;;;2.47;1.25;;;;;;;11.42;71.18;96915.22;7388956;19;20018;-76
2022/09/27 09:37:39;;;;;;;2.25;0.73;;;;;;;11.63;71.33;96905.53;7389531;19;20025;-77
2022/09/27 09:40:29;;;;;;;0.85;0.50;;;;;;;11.64;72.83;96910.66;7386932;19;20022;-77
2022/09/27 09:43:00;;;;;;;2.58;0.80;;;;;;;12.10;71.07;96918.94;7385113;19;20003;-77
2022/09/27 09:45:37;;;;;;;4.63;1.17;;;;;;;12.67;72.62;96910.44;7387569;19;20010;-77
2022/09/27 09:48:16;;;;;;;2.90;0.73;;;;;;;12.83;71.37;96913.69;7389825;19;20434;-77
2022/09/27 09:50:46;;;;;;;1.98;1.00;;;;;;;12.78;68.20;96903.69;7387838;19;20021;-77
2022/09/27 09:53:21;;;;;;;0.80;0.80;;;;;;;13.16;67.62;96898.53;7390164;19;20019;-77
2022/09/27 09:55:56;;;;;;;4.47;0.90;;;;;;;13.20;65.15;96898.13;7388920;19;20022;-75
2022/09/27 09:58:32;;;;;;;3.08;0.90;;;;;;;13.33;64.18;96890.13;7386629;19;20388;-75
2022/09/27 10:01:43;;;;;;;3.55;1.10;;;;;;;13.00;62.13;96887.53;7384205;19;20011;-74
2022/09/27 10:04:28;;;;;;;1.73;1.20;;;;;;;12.74;65.48;96887.38;7387575;19;20417;-75
2022/09/27 10:06:58;;;;;;;1.77;1.40;;;;;;;13.21;67.18;96889.09;7387804;19;20740;-76
2022/09/27 10:09:28;;;;;;;3.85;1.25;;;;;;;13.50;66.57;96885.97;7388115;19;20018;-75
2022/09/27 10:12:27;;;;;;;1.90;0.93;;;;;;;13.59;66.42;96874.09;7388748;19;20014;-75
2022/09/27 10:14:57;;;;;;;3.25;1.05;;;;;;;13.73;63.16;96871.38;7387542;19;20481;-76
2022/09/27 10:17:33;;;;;;;3.45;1.40;;;;;;;13.31;64.62;96876.25;7384497;19;20014;-76
2022/09/27 10:20:01;;;;;;;6.03;1.10;;;;;;;13.58;64.55;96882.25;7386685;19;20596;-76
2022/09/27 10:22:59;;;;;;;1.70;1.10;;;;;;;13.95;62.97;96885.94;7389288;19;20018;-76
2022/09/27 10:26:03;;;;;;;1.92;1.23;;;;;;;14.02;61.61;96885.94;7387931;19;20018;-76
2022/09/27 10:28:56;;;;;;;2.08;1.10;;;;;;;14.04;63.04;96881.22;7386856;19;20022;-76
2022/09/27 10:31:37;;;;;;;4.60;1.58;;;;;;;13.70;61.46;96871.78;7384728;19;20010;-75
2022/09/27 10:34:23;;;;;;;2.75;1.00;;;;;;;13.62;61.86;96872.84;7384426;19;20040;-75
2022/09/27 10:37:16;;;;;;;4.82;1.35;;;;;;;13.90;61.23;96880.47;7386556;19;20007;-76
2022/09/27 10:39:56;;;;;;;3.28;0.95;;;;;;;13.43;62.07;96876.38;7386104;19;20815;-76
2022/09/27 10:42:36;;;;;;;3.20;1.20;;;;;;;13.71;62.48;96878.72;7387585;19;20015;-76
2022/09/27 10:45:21;;;;;;;2.33;0.98;;;;;;;13.08;62.12;96874.03;7387470;19;20015;-75
2022/09/27 10:47:56;;;;;;;2.35;0.85;;;;;;;12.79;63.14;96870.81;7385597;19;20014;-76
2022/09/27 10:51:25;;;;;;;3.58;1.02;;;;;;;12.92;65.51;96877.94;7380823;19;20114;-74
2022/09/27 10:53:52;;;;;;;3.58;1.05;;;;;;;12.82;66.29;96875.72;7387686;19;20051;-75
2022/09/27 10:56:29;;;;;;;3.35;1.30;;;;;;;12.38;66.93;96884.31;7385348;19;20010;-75
2022/09/27 10:58:58;;;;;;;2.35;0.90;;;;;;;12.23;68.05;96880.00;7386188;19;20081;-75
2022/09/27 11:01:38;;;;;;;2.65;1.27;;;;;;;12.33;68.08;96871.66;7384493;19;20022;-75
2022/09/27 11:04:37;;;;;;;1.52;0.90;;;;;;;12.70;69.45;96867.56;7385284;19;20026;-75
2022/09/27 11:07:18;;;;;;;3.65;1.15;;;;;;;12.82;67.51;96864.28;7379318;19;20014;-75
2022/09/27 11:10:01;;;;;;;1.67;0.90;;;;;;;12.87;67.13;96861.81;7386864;19;20018;-77
2022/09/27 11:12:34;;;;;;;1.60;0.70;;;;;;;12.77;68.39;96856.13;7384778;19;20019;-77
2022/09/27 11:15:03;;;;;;;3.28;0.95;;;;;;;12.90;67.76;96856.94;7385639;19;20014;-77
2022/09/27 11:17:38;;;;;;;1.80;0.85;;;;;;;12.74;68.12;96847.56;7384648;19;20038;-77
2022/09/27 11:20:20;;;;;;;2.53;0.77;;;;;;;12.65;70.31;96840.84;7384261;19;20481;-77
2022/09/27 11:23:15;;;;;;;1.73;1.00;;;;;;;12.75;69.89;96843.06;7380401;19;20035;-77
2022/09/27 11:26:09;;;;;;;2.85;1.35;;;;;;;12.41;69.91;96847.59;7384194;19;20593;-77
2022/09/27 11:28:39;;;;;;;2.80;1.00;;;;;;;12.16;71.37;96850.03;7382226;19;20036;-76
2022/09/27 11:31:28;;;;;;;1.98;0.98;;;;;;;11.99;67.17;96840.84;7387711;19;20934;-76
2022/09/27 11:34:20;;;;;;;2.15;0.95;;;;;;;12.26;68.12;96837.19;7390992;19;20086;-76
2022/09/27 11:37:13;;;;;;;4.40;1.10;;;;;;;12.34;66.32;96838.00;7392812;19;20515;-76
2022/09/27 11:39:56;;;;;;;3.53;1.13;;;;;;;12.65;68.21;96830.22;7388523;19;20035;-77
2022/09/27 11:42:54;;;;;;;5.78;1.67;;;;;;;12.65;66.02;96826.75;7389674;19;20094;-75
2022/09/27 11:45:41;;;;;;;2.78;0.80;;;;;;;12.82;66.66;96817.34;7392697;19;20035;-75
2022/09/27 11:48:48;;;;;;;2.78;0.80;;;;;;;12.92;63.90;96816.88;7387849;19;20105;-76
2022/09/27 11:51:33;;;;;;;1.63;0.63;;;;;;;12.67;65.60;96816.75;7391559;19;20018;-75
2022/09/27 11:54:39;;;;;;;1.85;0.73;;;;;;;12.15;65.11;96848.41;7391917;19;20058;-75
2022/09/27 11:57:22;;;;;;;4.03;0.90;;;;;;;12.12;68.67;96874.50;7393707;19;20034;-76
2022/09/27 12:00:17;;;;;;;4.05;1.40;;;;;;;11.80;72.87;96877.69;7389090;19;20007;-76
2022/09/27 12:03:13;;;;;;;5.85;1.23;;;;;;;10.74;77.31;96893.88;7392474;19;20019;-76
2022/09/27 12:05:48;;;;;;;4.60;1.10;;;;;;;10.28;78.95;96915.47;7389159;19;20024;-75
2022/09/27 12:08:43;;;;;;;3.00;0.77;;;;;;;9.81;80.85;96900.94;7397079;19;20014;-77
2022/09/27 12:11:17;;;;;;;2.08;0.70;;;;;;;9.52;81.78;96908.94;7390543;19;20010;-79
2022/09/27 12:14:10;;;;;;;2.60;0.85;;;;;;;9.71;82.35;96902.25;7390007;19;20043;-77
2022/09/27 12:16:37;;;;;;;;;;;;;;;9.68;80.41;96900.78;7391687;19;20070;-78
2022/09/27 12:19:13;;;;;;;1.08;0.45;;;;;;;9.89;81.97;96895.53;7394578;19;19918;-77
2022/09/27 12:22:02;;;;;;;2.15;0.60;;;;;;;9.72;81.80;96898.63;7396426;19;20018;-77
2022/09/27 12:24:29;;;;;;;1.55;0.50;;;;;;;9.78;81.37;96889.94;7396301;19;20030;-77